Lande und Abstellentgelte PDF Drucken E-Mail

 

 

Als Sonderaktion gewähren wir gegenwärtig bei fünf Landungen am Stück auch bei Nicht-Schulflügen den Preis für Schullandungen. Schulflüge werden z. Zt. mit 50% der normalen Entgelte berechnet, mindestens jedoch mit € 7,00.

Eine Übersicht über die Lande- und Abstellentgelte können Sie hier als PDF herunterladen.

 

 

 

(Zum Öffnen benötigen Sie den Adobe Acrobat Reader, den Sie kostenfrei unter http://get.adobe.com/de/reader/ herunterladen können)

 

 

Zufallsbild

Aktuelle Termine

Mo Di Mi Do Fr Sa So
29 30 31 1 2 3 4
5 6 7 8 9 10 11
12 13 14 15 16 17 18
19 20 21 22 23 24 25
26 27 28 1 2 3 4

Pilotenwetter

[source: ADDS]
METAR
EDDH 222150Z 03005KT 350V060 9999 BKN044 M00/M03 Q1026 NOSIG =
TAF
TAF EDDH 221700Z 2218/2324 06004KT 8000 SCT030 PROB30 TEMPO 2301/2304 4500 BR FEW008 BKN012 TEMPO 2309/2316 07009KT =